createdAt,value
2018-08-19T00:01:19.992Z,22.20
2018-08-19T00:03:48.827Z,22.20
2018-08-19T00:06:17.773Z,22.10
2018-08-19T00:08:46.654Z,22.00
2018-08-19T00:11:15.682Z,21.90
2018-08-19T00:13:44.640Z,21.80
2018-08-19T00:16:13.428Z,21.80
2018-08-19T00:18:42.526Z,21.80
2018-08-19T00:21:12.377Z,21.70
2018-08-19T00:23:46.342Z,21.70
2018-08-19T00:26:15.404Z,21.70
2018-08-19T00:28:44.499Z,21.60
2018-08-19T00:31:13.381Z,21.60
2018-08-19T00:33:42.268Z,21.50
2018-08-19T00:36:24.968Z,21.50
2018-08-19T00:38:54.521Z,21.40
2018-08-19T00:41:23.475Z,21.30
2018-08-19T00:43:52.337Z,21.30
2018-08-19T00:46:31.107Z,21.30
2018-08-19T00:49:00.972Z,21.20
2018-08-19T00:51:29.861Z,21.10
2018-08-19T00:53:58.872Z,21.00
2018-08-19T00:56:27.916Z,21.00
2018-08-19T00:58:56.779Z,20.90
2018-08-19T01:01:38.268Z,20.80
2018-08-19T01:04:08.743Z,20.80
2018-08-19T01:06:42.820Z,20.80
2018-08-19T01:09:11.855Z,20.70
2018-08-19T01:11:44.155Z,20.70
2018-08-19T01:14:15.331Z,20.60
2018-08-19T01:16:44.297Z,20.60
2018-08-19T01:19:13.135Z,20.60
2018-08-19T01:21:42.087Z,20.50
2018-08-19T01:24:12.285Z,20.50
2018-08-19T01:26:42.235Z,20.50
2018-08-19T01:29:11.852Z,20.40
2018-08-19T01:31:40.775Z,20.40
2018-08-19T01:34:12.472Z,20.40
2018-08-19T01:36:41.446Z,20.30
2018-08-19T01:39:12.205Z,20.30
2018-08-19T01:41:41.941Z,20.20
2018-08-19T01:44:14.705Z,20.20
2018-08-19T01:46:49.289Z,20.20
2018-08-19T01:49:18.051Z,20.10
2018-08-19T01:51:47.427Z,20.10
2018-08-19T01:54:22.361Z,20.10
2018-08-19T01:56:58.457Z,20.00
2018-08-19T01:59:30.811Z,19.90
2018-08-19T02:02:02.343Z,19.90
2018-08-19T02:04:32.242Z,19.80
2018-08-19T02:07:01.906Z,19.80
2018-08-19T02:09:30.738Z,19.80
2018-08-19T02:12:00.571Z,19.70
2018-08-19T02:14:29.744Z,19.60
2018-08-19T02:16:58.718Z,19.60
2018-08-19T02:19:27.616Z,19.60
2018-08-19T02:21:56.451Z,19.50
2018-08-19T02:24:25.301Z,19.50
2018-08-19T02:26:54.503Z,19.50
2018-08-19T02:29:33.941Z,19.50
2018-08-19T02:32:10.752Z,19.50
2018-08-19T02:34:42.153Z,19.50
2018-08-19T02:37:12.992Z,19.40
2018-08-19T02:39:43.819Z,19.40
2018-08-19T02:42:22.274Z,19.40
2018-08-19T02:44:53.031Z,19.40
2018-08-19T02:47:21.977Z,19.40
2018-08-19T02:49:51.010Z,19.30
2018-08-19T02:52:25.053Z,19.30
2018-08-19T02:54:54.369Z,19.30
2018-08-19T02:57:23.274Z,19.20
2018-08-19T02:59:52.075Z,19.20
2018-08-19T03:02:29.691Z,19.10
2018-08-19T03:04:59.270Z,19.20
2018-08-19T03:07:29.287Z,19.20
2018-08-19T03:10:05.601Z,19.20
2018-08-19T03:12:34.513Z,19.20
2018-08-19T03:15:03.845Z,19.10
2018-08-19T03:17:33.193Z,19.20
2018-08-19T03:20:02.151Z,19.10
2018-08-19T03:22:31.429Z,19.10
2018-08-19T03:25:01.361Z,19.10
2018-08-19T03:27:30.518Z,19.10
2018-08-19T03:30:02.041Z,19.00
2018-08-19T03:32:31.008Z,19.00
2018-08-19T03:35:07.507Z,19.00
2018-08-19T03:37:37.383Z,18.90
2018-08-19T03:40:06.860Z,18.80
2018-08-19T03:42:35.935Z,18.80
2018-08-19T03:45:10.150Z,18.80
2018-08-19T03:47:39.137Z,18.80
2018-08-19T03:50:13.155Z,18.80
2018-08-19T03:52:43.939Z,18.80
2018-08-19T03:55:23.192Z,18.80
2018-08-19T03:57:52.716Z,18.70
2018-08-19T04:00:21.842Z,18.70
2018-08-19T04:02:50.696Z,18.70
2018-08-19T04:05:30.779Z,18.60
2018-08-19T04:07:59.663Z,18.50
2018-08-19T04:10:28.513Z,18.50
2018-08-19T04:12:57.529Z,18.50
2018-08-19T04:15:26.535Z,18.50
2018-08-19T04:17:55.551Z,18.50
2018-08-19T04:20:24.541Z,18.50
2018-08-19T04:22:53.754Z,18.50
2018-08-19T04:25:27.740Z,18.50
2018-08-19T04:27:56.561Z,18.50
2018-08-19T04:30:25.531Z,18.50
2018-08-19T04:32:54.507Z,18.60
2018-08-19T04:35:23.489Z,18.70
2018-08-19T04:37:52.467Z,18.70
2018-08-19T04:40:21.286Z,18.80
2018-08-19T04:42:50.081Z,18.90
2018-08-19T04:45:19.221Z,18.90
2018-08-19T04:47:48.057Z,18.80
2018-08-19T04:50:16.938Z,18.90
2018-08-19T04:52:45.811Z,19.00
2018-08-19T04:55:14.646Z,19.10
2018-08-19T04:57:43.541Z,19.20
2018-08-19T05:00:12.514Z,19.30
2018-08-19T05:02:41.432Z,19.40
2018-08-19T05:05:10.266Z,19.40
2018-08-19T05:07:39.161Z,19.60
2018-08-19T05:10:08.083Z,19.80
2018-08-19T05:12:37.275Z,20.20
2018-08-19T05:15:06.509Z,20.60
2018-08-19T05:17:35.419Z,20.90
2018-08-19T05:20:14.255Z,21.20
2018-08-19T05:22:43.696Z,21.60
2018-08-19T05:25:12.466Z,22.00
2018-08-19T05:27:41.249Z,22.50
2018-08-19T05:30:10.036Z,23.10
2018-08-19T05:32:47.096Z,23.40
2018-08-19T05:35:16.008Z,23.60
2018-08-19T05:37:44.977Z,23.80
2018-08-19T05:40:13.821Z,24.20
2018-08-19T05:42:42.629Z,24.60
2018-08-19T05:45:11.634Z,25.00
2018-08-19T05:47:40.408Z,25.40
2018-08-19T05:50:09.324Z,25.80
2018-08-19T05:52:38.094Z,25.90
2018-08-19T05:55:06.972Z,26.30
2018-08-19T05:57:36.008Z,26.70
2018-08-19T06:00:10.489Z,27.40
2018-08-19T06:02:44.244Z,28.10
2018-08-19T06:05:13.176Z,28.90
2018-08-19T06:07:42.239Z,29.30
2018-08-19T06:10:10.920Z,29.80
2018-08-19T06:12:39.732Z,30.60
2018-08-19T06:15:08.691Z,31.00
2018-08-19T06:17:37.579Z,31.50
2018-08-19T06:20:06.908Z,31.80
2018-08-19T06:22:40.033Z,31.60
2018-08-19T06:25:09.755Z,31.10
2018-08-19T06:27:48.704Z,30.60
2018-08-19T06:30:18.549Z,30.00
2018-08-19T06:32:47.800Z,29.20
2018-08-19T06:35:16.662Z,28.50
2018-08-19T06:37:45.574Z,27.50
2018-08-19T06:40:16.506Z,27.10
2018-08-19T06:42:45.898Z,26.90
2018-08-19T06:45:15.276Z,26.80
2018-08-19T06:47:44.345Z,26.70
2018-08-19T06:50:26.277Z,26.80
2018-08-19T06:52:56.078Z,26.80
2018-08-19T06:55:25.148Z,26.60
2018-08-19T06:57:56.056Z,26.60
2018-08-19T07:00:26.048Z,26.80
2018-08-19T07:02:55.814Z,27.10
2018-08-19T07:05:24.888Z,27.30
2018-08-19T07:07:53.816Z,27.30
2018-08-19T07:10:29.160Z,27.20
2018-08-19T07:13:17.598Z,27.00
2018-08-19T07:15:46.501Z,26.50
2018-08-19T07:18:16.512Z,26.50
2018-08-19T07:20:45.852Z,26.80
2018-08-19T07:23:14.757Z,26.70
2018-08-19T07:25:44.935Z,26.40
2018-08-19T07:28:15.248Z,26.50
2018-08-19T07:30:44.604Z,26.40
2018-08-19T07:33:13.969Z,26.30
2018-08-19T07:35:42.890Z,26.50
2018-08-19T07:38:11.750Z,26.80
2018-08-19T07:40:40.582Z,27.00
2018-08-19T07:43:09.578Z,27.00
2018-08-19T07:45:38.460Z,26.80
2018-08-19T07:48:07.424Z,26.60
2018-08-19T07:50:36.318Z,26.80
2018-08-19T07:53:05.578Z,27.20
2018-08-19T07:55:34.631Z,27.10
2018-08-19T07:58:03.521Z,27.00
2018-08-19T08:00:37.688Z,26.90
2018-08-19T08:03:06.808Z,27.00
2018-08-19T08:05:41.012Z,26.90
2018-08-19T08:08:10.064Z,26.90
2018-08-19T08:10:39.433Z,27.00
2018-08-19T08:13:12.395Z,27.30
2018-08-19T08:15:46.504Z,27.30
2018-08-19T08:18:15.670Z,27.30
2018-08-19T08:20:44.554Z,27.50
2018-08-19T08:23:23.110Z,27.50
2018-08-19T08:25:52.020Z,27.60
2018-08-19T08:28:20.913Z,27.90
2018-08-19T08:30:49.905Z,28.20
2018-08-19T08:33:18.828Z,28.00
2018-08-19T08:35:52.953Z,27.80
2018-08-19T08:38:21.990Z,27.90
2018-08-19T08:40:51.161Z,28.10
2018-08-19T08:43:20.779Z,28.30
2018-08-19T08:45:49.767Z,28.00
2018-08-19T08:48:18.623Z,28.10
2018-08-19T08:50:47.572Z,28.40
2018-08-19T08:53:16.372Z,28.20
2018-08-19T08:55:45.275Z,28.30
2018-08-19T08:58:14.207Z,28.30
2018-08-19T09:00:43.133Z,28.50
2018-08-19T09:03:11.963Z,28.50
2018-08-19T09:05:40.844Z,28.50
2018-08-19T09:08:09.774Z,28.70
2018-08-19T09:10:38.546Z,28.80
2018-08-19T09:13:07.465Z,28.80
2018-08-19T09:15:36.375Z,28.70
2018-08-19T09:18:05.333Z,28.60
2018-08-19T09:20:34.231Z,28.60
2018-08-19T09:23:03.037Z,28.60
2018-08-19T09:25:32.120Z,28.70
2018-08-19T09:28:00.923Z,28.90
2018-08-19T09:30:38.364Z,28.80
2018-08-19T09:33:07.201Z,28.80
2018-08-19T09:35:40.973Z,28.80
2018-08-19T09:38:13.303Z,29.00
2018-08-19T09:40:42.518Z,29.10
2018-08-19T09:43:11.557Z,29.20
2018-08-19T09:45:40.577Z,29.20
2018-08-19T09:48:10.259Z,29.30
2018-08-19T09:50:40.074Z,29.60
2018-08-19T09:53:09.027Z,29.50
2018-08-19T09:55:40.791Z,29.50
2018-08-19T09:58:13.497Z,29.70
2018-08-19T10:00:47.633Z,30.00
2018-08-19T10:03:16.872Z,30.10
2018-08-19T10:05:46.194Z,30.30
2018-08-19T10:08:15.479Z,30.30
2018-08-19T10:10:44.565Z,30.20
2018-08-19T10:13:15.667Z,30.10
2018-08-19T10:15:44.758Z,29.90
2018-08-19T10:18:13.627Z,29.60
2018-08-19T10:20:42.631Z,29.50
2018-08-19T10:23:11.468Z,29.50
2018-08-19T10:25:40.334Z,29.60
2018-08-19T10:28:09.189Z,29.80
2018-08-19T10:30:44.768Z,29.90
2018-08-19T10:33:13.987Z,29.80
2018-08-19T10:35:43.008Z,29.90
2018-08-19T10:38:12.064Z,30.10
2018-08-19T10:40:40.982Z,30.00
2018-08-19T10:43:10.745Z,29.80
2018-08-19T10:45:41.513Z,29.70
2018-08-19T10:48:12.177Z,29.90
2018-08-19T10:50:41.053Z,29.80
2018-08-19T10:53:16.662Z,29.60
2018-08-19T10:55:46.829Z,29.50
2018-08-19T10:58:15.787Z,29.80
2018-08-19T11:00:44.659Z,30.20
2018-08-19T11:03:18.621Z,30.50
2018-08-19T11:05:48.781Z,30.30
2018-08-19T11:08:17.666Z,30.00
2018-08-19T11:10:46.597Z,29.80
2018-08-19T11:13:20.284Z,30.00
2018-08-19T11:15:52.566Z,30.30
2018-08-19T11:18:41.655Z,30.30
2018-08-19T11:21:13.815Z,30.50
2018-08-19T11:23:44.007Z,30.70
2018-08-19T11:26:13.525Z,30.70
2018-08-19T11:28:52.091Z,30.80
2018-08-19T11:31:27.028Z,30.80
2018-08-19T11:33:58.963Z,30.80
2018-08-19T11:36:34.095Z,30.80
2018-08-19T11:39:03.015Z,30.80
2018-08-19T11:41:33.511Z,30.80
2018-08-19T11:44:06.641Z,30.80
2018-08-19T11:46:35.599Z,30.70
2018-08-19T11:49:10.321Z,30.80
2018-08-19T11:51:46.973Z,31.10
2018-08-19T11:54:17.151Z,31.40
2018-08-19T11:57:02.065Z,31.60
2018-08-19T11:59:50.129Z,31.20
2018-08-19T12:02:20.462Z,30.80
2018-08-19T12:04:49.409Z,30.50
2018-08-19T12:07:18.986Z,30.70
2018-08-19T12:09:55.902Z,30.90
2018-08-19T12:12:41.245Z,31.30
2018-08-19T12:15:10.063Z,32.10
2018-08-19T12:17:38.900Z,33.60
2018-08-19T12:20:08.268Z,35.20
2018-08-19T12:22:37.816Z,35.50
2018-08-19T12:25:06.670Z,35.40
2018-08-19T12:27:35.708Z,36.00
2018-08-19T12:30:11.876Z,37.30
2018-08-19T12:32:40.898Z,38.60
2018-08-19T12:35:09.755Z,39.60
2018-08-19T12:37:38.591Z,38.50
2018-08-19T12:40:08.241Z,38.20
2018-08-19T12:42:44.244Z,38.20
2018-08-19T12:45:13.253Z,39.00
2018-08-19T12:47:42.224Z,39.50
2018-08-19T12:50:13.828Z,39.70
2018-08-19T12:52:43.110Z,39.40
2018-08-19T12:55:14.388Z,39.70
2018-08-19T12:57:43.800Z,39.40
2018-08-19T13:00:20.298Z,39.20
2018-08-19T13:02:51.272Z,39.40
2018-08-19T13:05:20.936Z,39.60
2018-08-19T13:07:51.036Z,40.20
2018-08-19T13:10:20.515Z,41.00
2018-08-19T13:12:58.316Z,40.90
2018-08-19T13:15:30.259Z,41.30
2018-08-19T13:17:59.422Z,42.10
2018-08-19T13:20:28.390Z,42.50
2018-08-19T13:23:02.495Z,42.70
2018-08-19T13:25:32.270Z,42.20
2018-08-19T13:28:02.088Z,40.20
2018-08-19T13:30:30.927Z,39.00
2018-08-19T13:32:59.801Z,38.50
2018-08-19T13:35:28.531Z,38.10
2018-08-19T13:37:57.325Z,37.50
2018-08-19T13:40:26.221Z,37.00
2018-08-19T13:42:55.200Z,36.30
2018-08-19T13:45:26.441Z,36.00
2018-08-19T13:47:55.392Z,36.00
2018-08-19T13:50:24.330Z,35.10
2018-08-19T13:52:53.214Z,34.30
2018-08-19T13:55:22.050Z,33.60
2018-08-19T13:57:50.944Z,33.10
2018-08-19T14:00:21.549Z,33.40
2018-08-19T14:02:50.824Z,34.10
2018-08-19T14:05:19.638Z,34.40
2018-08-19T14:07:48.446Z,34.00
2018-08-19T14:10:17.568Z,33.50
2018-08-19T14:12:46.370Z,33.40
2018-08-19T14:15:15.214Z,33.30
2018-08-19T14:17:44.359Z,33.00
2018-08-19T14:20:13.305Z,32.40
2018-08-19T14:22:42.163Z,32.00
2018-08-19T14:25:12.137Z,31.70
2018-08-19T14:27:41.150Z,32.30
2018-08-19T14:30:11.806Z,33.20
2018-08-19T14:32:42.089Z,33.70
2018-08-19T14:35:10.909Z,33.80
2018-08-19T14:37:39.677Z,34.00
2018-08-19T14:40:10.749Z,34.40
2018-08-19T14:42:39.601Z,34.30
2018-08-19T14:45:08.477Z,33.90
2018-08-19T14:47:37.406Z,34.40
2018-08-19T14:50:11.990Z,35.50
2018-08-19T14:52:40.822Z,36.00
2018-08-19T14:55:10.150Z,36.00
2018-08-19T14:57:39.005Z,36.20
2018-08-19T15:00:09.986Z,36.60
2018-08-19T15:02:39.298Z,36.40
2018-08-19T15:05:08.562Z,36.10
2018-08-19T15:07:37.897Z,36.20
2018-08-19T15:10:06.938Z,36.00
2018-08-19T15:12:35.832Z,35.70
2018-08-19T15:15:04.709Z,35.70
2018-08-19T15:17:33.579Z,36.20
2018-08-19T15:20:02.477Z,36.40
2018-08-19T15:22:31.406Z,36.90
2018-08-19T15:25:00.264Z,37.00
2018-08-19T15:27:29.269Z,37.20
2018-08-19T15:29:58.170Z,37.00
2018-08-19T15:32:27.386Z,36.70
2018-08-19T15:34:56.000Z,36.40
2018-08-19T15:37:24.890Z,36.60
2018-08-19T15:39:53.846Z,36.30
2018-08-19T15:42:22.842Z,36.50
2018-08-19T15:44:51.762Z,36.70
2018-08-19T15:47:20.547Z,36.60
2018-08-19T15:49:54.590Z,36.30
2018-08-19T15:52:23.530Z,36.20
2018-08-19T15:54:56.793Z,35.90
2018-08-19T15:57:25.624Z,36.10
2018-08-19T15:59:54.382Z,36.40
2018-08-19T16:02:23.348Z,36.40
2018-08-19T16:04:52.175Z,36.60
2018-08-19T16:07:21.078Z,36.10
2018-08-19T16:09:49.914Z,35.70
2018-08-19T16:12:18.980Z,35.70
2018-08-19T16:14:47.792Z,35.70
2018-08-19T16:17:16.685Z,35.70
2018-08-19T16:19:45.573Z,35.30
2018-08-19T16:22:14.470Z,34.90
2018-08-19T16:24:43.452Z,34.70
2018-08-19T16:27:12.364Z,34.50
2018-08-19T16:29:41.190Z,34.10
2018-08-19T16:32:09.976Z,33.80
2018-08-19T16:34:39.020Z,32.90
2018-08-19T16:37:07.994Z,30.50
2018-08-19T16:39:37.354Z,28.90
2018-08-19T16:42:06.477Z,27.70
2018-08-19T16:44:35.346Z,26.80
2018-08-19T16:47:04.294Z,26.20
2018-08-19T16:49:33.169Z,25.60
2018-08-19T16:52:02.060Z,25.40
2018-08-19T16:54:30.981Z,25.10
2018-08-19T16:56:59.966Z,25.00
2018-08-19T16:59:28.748Z,24.90
2018-08-19T17:01:57.547Z,25.10
2018-08-19T17:04:26.396Z,25.20
2018-08-19T17:06:55.182Z,25.70
2018-08-19T17:09:24.012Z,26.10
2018-08-19T17:11:52.947Z,26.50
2018-08-19T17:14:21.726Z,26.90
2018-08-19T17:16:50.702Z,27.30
2018-08-19T17:19:19.654Z,27.60
2018-08-19T17:21:48.549Z,27.80
2018-08-19T17:24:17.534Z,28.00
2018-08-19T17:26:46.546Z,28.10
2018-08-19T17:29:18.282Z,28.20
2018-08-19T17:31:47.410Z,28.30
2018-08-19T17:34:21.296Z,28.40
2018-08-19T17:36:50.103Z,28.50
2018-08-19T17:39:21.332Z,28.60
2018-08-19T17:41:51.545Z,28.60
2018-08-19T17:44:21.173Z,28.70
2018-08-19T17:46:53.975Z,28.70
2018-08-19T17:49:26.758Z,28.70
2018-08-19T17:51:56.946Z,28.80
2018-08-19T17:54:31.856Z,28.70
2018-08-19T17:57:02.003Z,28.70
2018-08-19T17:59:31.199Z,28.60
2018-08-19T18:02:00.517Z,28.60
2018-08-19T18:04:48.468Z,28.50
2018-08-19T18:07:23.848Z,28.50
2018-08-19T18:09:57.870Z,28.40
2018-08-19T18:12:27.054Z,28.30
2018-08-19T18:14:56.014Z,28.20
2018-08-19T18:17:25.008Z,28.20
2018-08-19T18:19:53.693Z,28.10
2018-08-19T18:22:22.706Z,28.00
2018-08-19T18:25:02.751Z,27.90
2018-08-19T18:27:31.660Z,27.80
2018-08-19T18:30:00.805Z,27.70
2018-08-19T18:32:29.756Z,27.70
2018-08-19T18:34:58.559Z,27.60
2018-08-19T18:37:27.489Z,27.50
2018-08-19T18:39:56.350Z,27.40
2018-08-19T18:42:35.517Z,27.40
2018-08-19T18:45:08.834Z,27.30
2018-08-19T18:47:48.812Z,27.20
2018-08-19T18:50:18.434Z,27.10
2018-08-19T18:52:47.271Z,27.00
2018-08-19T18:55:16.199Z,27.00
2018-08-19T18:57:50.961Z,27.00
2018-08-19T19:00:21.448Z,26.90
2018-08-19T19:02:53.669Z,26.90
2018-08-19T19:05:35.616Z,26.80
2018-08-19T19:08:13.451Z,26.80
2018-08-19T19:10:54.388Z,26.70
2018-08-19T19:13:24.390Z,26.70
2018-08-19T19:15:53.298Z,26.70
2018-08-19T19:18:22.148Z,26.60
2018-08-19T19:20:56.492Z,26.60
2018-08-19T19:23:32.658Z,26.50
2018-08-19T19:26:02.939Z,26.40
2018-08-19T19:28:32.069Z,26.20
2018-08-19T19:31:06.321Z,26.10
2018-08-19T19:33:36.058Z,25.90
2018-08-19T19:36:10.400Z,25.80
2018-08-19T19:38:45.542Z,25.70
2018-08-19T19:41:14.412Z,25.50
2018-08-19T19:43:43.810Z,25.50
2018-08-19T19:46:12.636Z,25.40
2018-08-19T19:48:41.452Z,25.40
2018-08-19T19:51:10.359Z,25.30
2018-08-19T19:53:39.296Z,25.20
2018-08-19T19:56:12.573Z,25.10
2018-08-19T19:58:43.642Z,25.00
2018-08-19T20:01:12.539Z,25.00
2018-08-19T20:03:46.736Z,24.90
2018-08-19T20:06:15.534Z,24.90
2018-08-19T20:08:44.400Z,24.80
2018-08-19T20:11:19.734Z,24.70
2018-08-19T20:13:49.131Z,24.70
2018-08-19T20:16:18.297Z,24.60
2018-08-19T20:18:47.187Z,24.50
2018-08-19T20:21:23.043Z,24.50
2018-08-19T20:23:53.300Z,24.40
2018-08-19T20:26:22.856Z,24.30
2018-08-19T20:28:53.634Z,24.30
2018-08-19T20:31:22.506Z,24.20
2018-08-19T20:33:51.295Z,24.20
2018-08-19T20:36:20.521Z,24.10
2018-08-19T20:38:49.529Z,24.10
2018-08-19T20:41:18.503Z,24.00
2018-08-19T20:43:47.327Z,24.00
2018-08-19T20:46:16.356Z,23.90
2018-08-19T20:48:47.551Z,23.90
2018-08-19T20:51:16.675Z,23.90
2018-08-19T20:53:45.589Z,23.90
2018-08-19T20:56:14.592Z,23.90
2018-08-19T20:58:43.411Z,23.90
2018-08-19T21:01:18.037Z,23.90
2018-08-19T21:03:47.133Z,23.90
2018-08-19T21:06:16.000Z,23.90
2018-08-19T21:08:45.859Z,23.90
2018-08-19T21:11:14.625Z,23.80
2018-08-19T21:13:43.727Z,23.80
2018-08-19T21:16:12.643Z,23.80
2018-08-19T21:18:41.484Z,23.80
2018-08-19T21:21:10.349Z,23.80
2018-08-19T21:23:39.274Z,23.80
2018-08-19T21:26:08.463Z,23.80
2018-08-19T21:28:37.321Z,23.80
2018-08-19T21:31:06.151Z,23.70
2018-08-19T21:33:35.049Z,23.70
2018-08-19T21:36:04.129Z,23.70
2018-08-19T21:38:32.994Z,23.70
2018-08-19T21:41:02.258Z,23.70
2018-08-19T21:43:31.709Z,23.70
2018-08-19T21:46:01.157Z,23.60
2018-08-19T21:48:30.051Z,23.60
2018-08-19T21:50:58.858Z,23.60
2018-08-19T21:53:28.145Z,23.60
2018-08-19T21:55:57.002Z,23.50
2018-08-19T21:58:25.905Z,23.50
2018-08-19T22:00:58.846Z,23.50
2018-08-19T22:03:33.025Z,23.50
2018-08-19T22:06:06.235Z,23.40
2018-08-19T22:08:35.196Z,23.20
2018-08-19T22:11:04.362Z,23.20
2018-08-19T22:13:33.182Z,23.00
2018-08-19T22:16:02.094Z,23.00
2018-08-19T22:18:32.298Z,22.90
2018-08-19T22:21:23.158Z,22.90
2018-08-19T22:23:55.137Z,22.90
2018-08-19T22:26:24.162Z,22.80
2018-08-19T22:29:10.330Z,22.70
2018-08-19T22:31:39.431Z,22.60
2018-08-19T22:34:08.314Z,22.60
2018-08-19T22:36:37.244Z,22.50
2018-08-19T22:39:09.377Z,22.50
2018-08-19T22:41:38.235Z,22.40
2018-08-19T22:44:07.000Z,22.40
2018-08-19T22:46:35.819Z,22.30
2018-08-19T22:49:04.720Z,22.30
2018-08-19T22:51:34.180Z,22.30
2018-08-19T22:54:03.471Z,22.20
2018-08-19T22:56:32.350Z,22.20
2018-08-19T22:59:02.423Z,22.10
2018-08-19T23:01:36.436Z,22.10
2018-08-19T23:04:05.363Z,22.00
2018-08-19T23:06:34.665Z,22.00
2018-08-19T23:09:04.974Z,22.00
2018-08-19T23:11:39.212Z,21.90
2018-08-19T23:14:19.206Z,21.90
2018-08-19T23:16:48.081Z,21.90
2018-08-19T23:19:20.147Z,21.90
2018-08-19T23:21:49.044Z,21.90
2018-08-19T23:24:17.893Z,21.90
2018-08-19T23:26:46.823Z,21.90
2018-08-19T23:29:15.652Z,21.90
2018-08-19T23:31:44.451Z,21.80
2018-08-19T23:34:13.280Z,21.80
2018-08-19T23:36:42.168Z,21.80
2018-08-19T23:39:11.197Z,21.80
2018-08-19T23:41:40.098Z,21.70
2018-08-19T23:44:09.297Z,21.70
2018-08-19T23:46:38.175Z,21.60
2018-08-19T23:49:07.083Z,21.60
2018-08-19T23:51:35.909Z,21.60
2018-08-19T23:54:05.052Z,21.60
2018-08-19T23:56:33.983Z,21.60
2018-08-19T23:59:02.983Z,21.60
